sensor_id;sensor_type;location;lat;lon;timestamp;P1;durP1;ratioP1;P2;durP2;ratioP2
53261;SDS011;39658;51.090;-1.786;2022-11-20T00:01:22;14.13;;;7.18;;
53261;SDS011;39658;51.090;-1.786;2022-11-20T00:03:50;25.20;;;7.22;;
53261;SDS011;39658;51.090;-1.786;2022-11-20T00:06:19;19.27;;;6.95;;
53261;SDS011;39658;51.090;-1.786;2022-11-20T00:08:47;21.50;;;6.35;;
53261;SDS011;39658;51.090;-1.786;2022-11-20T00:11:15;15.10;;;7.15;;
53261;SDS011;39658;51.090;-1.786;2022-11-20T00:13:44;23.60;;;9.48;;
53261;SDS011;39658;51.090;-1.786;2022-11-20T00:16:13;21.13;;;8.32;;
53261;SDS011;39658;51.090;-1.786;2022-11-20T00:18:41;18.98;;;8.02;;
53261;SDS011;39658;51.090;-1.786;2022-11-20T00:21:10;26.33;;;7.95;;
53261;SDS011;39658;51.090;-1.786;2022-11-20T00:23:39;21.08;;;7.80;;
53261;SDS011;39658;51.090;-1.786;2022-11-20T00:26:07;15.02;;;6.78;;
53261;SDS011;39658;51.090;-1.786;2022-11-20T00:28:35;17.27;;;7.32;;
53261;SDS011;39658;51.090;-1.786;2022-11-20T00:31:02;17.50;;;7.22;;
53261;SDS011;39658;51.090;-1.786;2022-11-20T00:33:30;17.10;;;6.82;;
53261;SDS011;39658;51.090;-1.786;2022-11-20T00:36:00;15.63;;;6.85;;
53261;SDS011;39658;51.090;-1.786;2022-11-20T00:38:27;20.65;;;7.22;;
53261;SDS011;39658;51.090;-1.786;2022-11-20T00:40:56;20.40;;;6.78;;
53261;SDS011;39658;51.090;-1.786;2022-11-20T00:43:23;18.67;;;7.10;;
53261;SDS011;39658;51.090;-1.786;2022-11-20T00:45:50;20.17;;;7.43;;
53261;SDS011;39658;51.090;-1.786;2022-11-20T00:48:21;15.35;;;7.07;;
53261;SDS011;39658;51.090;-1.786;2022-11-20T00:50:48;15.17;;;7.00;;
53261;SDS011;39658;51.090;-1.786;2022-11-20T00:53:15;17.57;;;6.80;;
53261;SDS011;39658;51.090;-1.786;2022-11-20T00:55:42;16.60;;;5.83;;
53261;SDS011;39658;51.090;-1.786;2022-11-20T00:58:10;14.52;;;6.88;;
53261;SDS011;39658;51.090;-1.786;2022-11-20T01:00:37;16.50;;;6.88;;
53261;SDS011;39658;51.090;-1.786;2022-11-20T01:03:03;17.88;;;7.80;;
53261;SDS011;39658;51.090;-1.786;2022-11-20T01:05:33;23.10;;;8.32;;
53261;SDS011;39658;51.090;-1.786;2022-11-20T01:08:00;28.52;;;9.32;;
53261;SDS011;39658;51.090;-1.786;2022-11-20T01:10:27;19.45;;;7.28;;
53261;SDS011;39658;51.090;-1.786;2022-11-20T01:12:54;16.70;;;6.22;;
53261;SDS011;39658;51.090;-1.786;2022-11-20T01:15:36;16.88;;;6.35;;
53261;SDS011;39658;51.090;-1.786;2022-11-20T01:18:03;14.32;;;6.10;;
53261;SDS011;39658;51.090;-1.786;2022-11-20T01:20:30;15.82;;;6.22;;
53261;SDS011;39658;51.090;-1.786;2022-11-20T01:23:00;17.13;;;5.75;;
53261;SDS011;39658;51.090;-1.786;2022-11-20T01:25:27;13.80;;;5.43;;
53261;SDS011;39658;51.090;-1.786;2022-11-20T01:27:54;14.27;;;5.03;;
53261;SDS011;39658;51.090;-1.786;2022-11-20T01:30:20;14.30;;;6.15;;
53261;SDS011;39658;51.090;-1.786;2022-11-20T01:32:49;20.00;;;6.45;;
53261;SDS011;39658;51.090;-1.786;2022-11-20T01:35:16;15.80;;;5.28;;
53261;SDS011;39658;51.090;-1.786;2022-11-20T01:37:43;14.50;;;5.82;;
53261;SDS011;39658;51.090;-1.786;2022-11-20T01:40:10;19.20;;;6.15;;
53261;SDS011;39658;51.090;-1.786;2022-11-20T01:42:37;14.50;;;5.90;;
53261;SDS011;39658;51.090;-1.786;2022-11-20T01:48:24;14.50;;;6.07;;
53261;SDS011;39658;51.090;-1.786;2022-11-20T01:50:53;20.02;;;5.70;;
53261;SDS011;39658;51.090;-1.786;2022-11-20T01:53:21;14.65;;;5.82;;
53261;SDS011;39658;51.090;-1.786;2022-11-20T01:55:54;16.42;;;5.97;;
53261;SDS011;39658;51.090;-1.786;2022-11-20T01:58:26;13.73;;;5.72;;
53261;SDS011;39658;51.090;-1.786;2022-11-20T02:00:56;16.17;;;6.30;;
53261;SDS011;39658;51.090;-1.786;2022-11-20T02:03:24;19.80;;;6.75;;
53261;SDS011;39658;51.090;-1.786;2022-11-20T02:05:53;19.08;;;6.32;;
53261;SDS011;39658;51.090;-1.786;2022-11-20T02:08:25;22.58;;;5.90;;
53261;SDS011;39658;51.090;-1.786;2022-11-20T02:10:52;17.05;;;5.53;;
53261;SDS011;39658;51.090;-1.786;2022-11-20T02:13:19;10.70;;;5.22;;
53261;SDS011;39658;51.090;-1.786;2022-11-20T02:16:03;17.63;;;5.88;;
53261;SDS011;39658;51.090;-1.786;2022-11-20T02:18:35;12.68;;;5.38;;
53261;SDS011;39658;51.090;-1.786;2022-11-20T02:21:04;12.10;;;5.53;;
53261;SDS011;39658;51.090;-1.786;2022-11-20T02:23:36;15.77;;;5.03;;
53261;SDS011;39658;51.090;-1.786;2022-11-20T02:26:07;14.27;;;5.60;;
53261;SDS011;39658;51.090;-1.786;2022-11-20T02:28:38;11.98;;;5.78;;
53261;SDS011;39658;51.090;-1.786;2022-11-20T02:31:05;16.90;;;5.07;;
53261;SDS011;39658;51.090;-1.786;2022-11-20T02:33:31;15.57;;;5.00;;
53261;SDS011;39658;51.090;-1.786;2022-11-20T02:35:58;15.50;;;4.78;;
53261;SDS011;39658;51.090;-1.786;2022-11-20T02:38:25;19.00;;;5.68;;
53261;SDS011;39658;51.090;-1.786;2022-11-20T02:40:52;13.88;;;4.72;;
53261;SDS011;39658;51.090;-1.786;2022-11-20T02:43:20;14.60;;;4.88;;
53261;SDS011;39658;51.090;-1.786;2022-11-20T02:45:47;13.68;;;4.72;;
53261;SDS011;39658;51.090;-1.786;2022-11-20T02:48:14;10.35;;;4.68;;
53261;SDS011;39658;51.090;-1.786;2022-11-20T02:50:40;12.93;;;5.00;;
53261;SDS011;39658;51.090;-1.786;2022-11-20T02:53:07;11.63;;;4.88;;
53261;SDS011;39658;51.090;-1.786;2022-11-20T02:55:34;11.75;;;5.30;;
53261;SDS011;39658;51.090;-1.786;2022-11-20T02:58:01;12.32;;;5.40;;
53261;SDS011;39658;51.090;-1.786;2022-11-20T03:00:30;9.80;;;4.68;;
53261;SDS011;39658;51.090;-1.786;2022-11-20T03:02:57;10.90;;;4.88;;
53261;SDS011;39658;51.090;-1.786;2022-11-20T03:05:23;10.93;;;5.22;;
53261;SDS011;39658;51.090;-1.786;2022-11-20T03:07:50;10.93;;;4.80;;
53261;SDS011;39658;51.090;-1.786;2022-11-20T03:10:17;12.40;;;5.05;;
53261;SDS011;39658;51.090;-1.786;2022-11-20T03:12:44;9.40;;;4.75;;
53261;SDS011;39658;51.090;-1.786;2022-11-20T03:15:11;10.73;;;5.30;;
53261;SDS011;39658;51.090;-1.786;2022-11-20T03:17:39;12.43;;;5.28;;
53261;SDS011;39658;51.090;-1.786;2022-11-20T03:20:06;13.48;;;5.18;;
53261;SDS011;39658;51.090;-1.786;2022-11-20T03:22:34;10.35;;;4.75;;
53261;SDS011;39658;51.090;-1.786;2022-11-20T03:25:01;13.57;;;5.50;;
53261;SDS011;39658;51.090;-1.786;2022-11-20T03:27:31;9.25;;;4.60;;
53261;SDS011;39658;51.090;-1.786;2022-11-20T03:29:58;13.30;;;4.55;;
53261;SDS011;39658;51.090;-1.786;2022-11-20T03:32:25;13.07;;;5.00;;
53261;SDS011;39658;51.090;-1.786;2022-11-20T03:34:53;9.70;;;4.57;;
53261;SDS011;39658;51.090;-1.786;2022-11-20T03:37:20;10.18;;;5.05;;
53261;SDS011;39658;51.090;-1.786;2022-11-20T03:39:47;8.98;;;4.60;;
53261;SDS011;39658;51.090;-1.786;2022-11-20T03:42:13;10.60;;;3.92;;
53261;SDS011;39658;51.090;-1.786;2022-11-20T03:44:54;7.95;;;3.70;;
53261;SDS011;39658;51.090;-1.786;2022-11-20T03:47:21;8.38;;;3.65;;
53261;SDS011;39658;51.090;-1.786;2022-11-20T03:49:48;7.93;;;3.72;;
53261;SDS011;39658;51.090;-1.786;2022-11-20T03:52:16;11.90;;;3.20;;
53261;SDS011;39658;51.090;-1.786;2022-11-20T03:54:43;9.07;;;2.87;;
53261;SDS011;39658;51.090;-1.786;2022-11-20T03:57:10;8.48;;;2.88;;
53261;SDS011;39658;51.090;-1.786;2022-11-20T03:59:36;7.53;;;2.23;;
53261;SDS011;39658;51.090;-1.786;2022-11-20T04:02:03;5.60;;;2.03;;
53261;SDS011;39658;51.090;-1.786;2022-11-20T04:04:30;6.38;;;2.00;;
53261;SDS011;39658;51.090;-1.786;2022-11-20T04:06:57;7.43;;;2.20;;
53261;SDS011;39658;51.090;-1.786;2022-11-20T04:09:25;12.63;;;2.45;;
53261;SDS011;39658;51.090;-1.786;2022-11-20T04:11:52;4.38;;;1.73;;
53261;SDS011;39658;51.090;-1.786;2022-11-20T04:14:18;7.13;;;1.95;;
53261;SDS011;39658;51.090;-1.786;2022-11-20T04:16:45;5.07;;;1.80;;
53261;SDS011;39658;51.090;-1.786;2022-11-20T04:19:12;8.23;;;2.33;;
53261;SDS011;39658;51.090;-1.786;2022-11-20T04:21:41;5.95;;;2.10;;
53261;SDS011;39658;51.090;-1.786;2022-11-20T04:24:08;8.90;;;2.10;;
53261;SDS011;39658;51.090;-1.786;2022-11-20T04:26:38;6.65;;;1.77;;
53261;SDS011;39658;51.090;-1.786;2022-11-20T04:29:05;4.03;;;1.30;;
53261;SDS011;39658;51.090;-1.786;2022-11-20T04:31:32;11.85;;;1.95;;
53261;SDS011;39658;51.090;-1.786;2022-11-20T04:34:00;6.07;;;1.70;;
53261;SDS011;39658;51.090;-1.786;2022-11-20T04:36:28;6.18;;;1.48;;
53261;SDS011;39658;51.090;-1.786;2022-11-20T04:38:56;5.03;;;1.50;;
53261;SDS011;39658;51.090;-1.786;2022-11-20T04:41:26;3.67;;;1.33;;
53261;SDS011;39658;51.090;-1.786;2022-11-20T04:43:57;4.40;;;1.48;;
53261;SDS011;39658;51.090;-1.786;2022-11-20T04:46:27;8.00;;;1.38;;
53261;SDS011;39658;51.090;-1.786;2022-11-20T04:48:55;4.57;;;1.05;;
53261;SDS011;39658;51.090;-1.786;2022-11-20T04:51:22;2.55;;;0.80;;
53261;SDS011;39658;51.090;-1.786;2022-11-20T04:53:49;2.25;;;0.52;;
53261;SDS011;39658;51.090;-1.786;2022-11-20T04:56:16;1.20;;;0.40;;
53261;SDS011;39658;51.090;-1.786;2022-11-20T04:58:43;0.50;;;0.30;;
53261;SDS011;39658;51.090;-1.786;2022-11-20T05:01:12;2.08;;;0.40;;
53261;SDS011;39658;51.090;-1.786;2022-11-20T05:03:40;3.08;;;0.40;;
53261;SDS011;39658;51.090;-1.786;2022-11-20T05:06:08;1.00;;;0.50;;
53261;SDS011;39658;51.090;-1.786;2022-11-20T05:08:35;0.30;;;0.20;;
53261;SDS011;39658;51.090;-1.786;2022-11-20T05:11:03;1.73;;;0.38;;
53261;SDS011;39658;51.090;-1.786;2022-11-20T05:13:31;0.40;;;0.20;;
53261;SDS011;39658;51.090;-1.786;2022-11-20T05:16:01;0.50;;;0.30;;
53261;SDS011;39658;51.090;-1.786;2022-11-20T05:18:30;1.00;;;0.38;;
53261;SDS011;39658;51.090;-1.786;2022-11-20T05:20:56;3.80;;;0.73;;
53261;SDS011;39658;51.090;-1.786;2022-11-20T05:23:24;2.30;;;0.52;;
53261;SDS011;39658;51.090;-1.786;2022-11-20T05:25:51;0.85;;;0.32;;
53261;SDS011;39658;51.090;-1.786;2022-11-20T05:28:19;1.45;;;0.50;;
53261;SDS011;39658;51.090;-1.786;2022-11-20T05:30:46;0.57;;;0.20;;
53261;SDS011;39658;51.090;-1.786;2022-11-20T05:33:13;0.55;;;0.30;;
53261;SDS011;39658;51.090;-1.786;2022-11-20T05:35:41;0.20;;;0.20;;
53261;SDS011;39658;51.090;-1.786;2022-11-20T05:38:08;0.20;;;0.10;;
53261;SDS011;39658;51.090;-1.786;2022-11-20T05:40:36;0.63;;;0.10;;
53261;SDS011;39658;51.090;-1.786;2022-11-20T05:43:02;1.70;;;0.30;;
53261;SDS011;39658;51.090;-1.786;2022-11-20T05:45:29;2.67;;;0.50;;
53261;SDS011;39658;51.090;-1.786;2022-11-20T05:47:57;0.90;;;0.30;;
53261;SDS011;39658;51.090;-1.786;2022-11-20T05:50:25;0.55;;;0.30;;
53261;SDS011;39658;51.090;-1.786;2022-11-20T05:52:53;2.30;;;0.52;;
53261;SDS011;39658;51.090;-1.786;2022-11-20T05:55:20;0.85;;;0.38;;
53261;SDS011;39658;51.090;-1.786;2022-11-20T05:57:46;2.13;;;0.75;;
53261;SDS011;39658;51.090;-1.786;2022-11-20T06:00:14;6.03;;;1.10;;
53261;SDS011;39658;51.090;-1.786;2022-11-20T06:02:41;6.18;;;1.45;;
53261;SDS011;39658;51.090;-1.786;2022-11-20T06:05:08;5.55;;;1.30;;
53261;SDS011;39658;51.090;-1.786;2022-11-20T06:07:35;5.90;;;1.70;;
53261;SDS011;39658;51.090;-1.786;2022-11-20T06:10:03;6.17;;;1.57;;
53261;SDS011;39658;51.090;-1.786;2022-11-20T06:12:31;6.00;;;1.27;;
53261;SDS011;39658;51.090;-1.786;2022-11-20T06:14:57;8.40;;;1.55;;
53261;SDS011;39658;51.090;-1.786;2022-11-20T06:17:24;7.80;;;1.50;;
53261;SDS011;39658;51.090;-1.786;2022-11-20T06:19:51;9.77;;;2.08;;
53261;SDS011;39658;51.090;-1.786;2022-11-20T06:22:18;10.23;;;1.90;;
53261;SDS011;39658;51.090;-1.786;2022-11-20T06:24:45;9.80;;;2.00;;
53261;SDS011;39658;51.090;-1.786;2022-11-20T06:27:13;8.10;;;1.40;;
53261;SDS011;39658;51.090;-1.786;2022-11-20T06:29:40;10.85;;;1.77;;
53261;SDS011;39658;51.090;-1.786;2022-11-20T06:32:06;9.27;;;2.03;;
53261;SDS011;39658;51.090;-1.786;2022-11-20T06:34:33;13.07;;;1.90;;
53261;SDS011;39658;51.090;-1.786;2022-11-20T06:37:00;15.90;;;2.05;;
53261;SDS011;39658;51.090;-1.786;2022-11-20T06:39:27;14.25;;;2.45;;
53261;SDS011;39658;51.090;-1.786;2022-11-20T06:41:54;22.00;;;2.72;;
53261;SDS011;39658;51.090;-1.786;2022-11-20T06:44:22;16.27;;;2.50;;
53261;SDS011;39658;51.090;-1.786;2022-11-20T06:46:48;16.67;;;2.75;;
53261;SDS011;39658;51.090;-1.786;2022-11-20T06:49:15;18.25;;;3.13;;
53261;SDS011;39658;51.090;-1.786;2022-11-20T06:51:42;16.92;;;2.40;;
53261;SDS011;39658;51.090;-1.786;2022-11-20T06:54:09;29.60;;;3.55;;
53261;SDS011;39658;51.090;-1.786;2022-11-20T06:56:36;19.20;;;3.00;;
53261;SDS011;39658;51.090;-1.786;2022-11-20T06:59:03;17.90;;;3.25;;
53261;SDS011;39658;51.090;-1.786;2022-11-20T07:01:32;23.17;;;3.20;;
53261;SDS011;39658;51.090;-1.786;2022-11-20T07:04:00;33.58;;;3.80;;
53261;SDS011;39658;51.090;-1.786;2022-11-20T07:06:27;19.35;;;2.88;;
53261;SDS011;39658;51.090;-1.786;2022-11-20T07:08:53;27.65;;;3.38;;
53261;SDS011;39658;51.090;-1.786;2022-11-20T07:11:20;33.07;;;4.10;;
53261;SDS011;39658;51.090;-1.786;2022-11-20T07:13:47;32.78;;;3.97;;
53261;SDS011;39658;51.090;-1.786;2022-11-20T07:16:14;17.95;;;3.53;;
53261;SDS011;39658;51.090;-1.786;2022-11-20T07:18:42;20.58;;;3.00;;
53261;SDS011;39658;51.090;-1.786;2022-11-20T07:21:09;34.05;;;5.30;;
53261;SDS011;39658;51.090;-1.786;2022-11-20T07:23:37;32.35;;;4.57;;
53261;SDS011;39658;51.090;-1.786;2022-11-20T07:26:04;22.65;;;4.28;;
53261;SDS011;39658;51.090;-1.786;2022-11-20T07:28:31;30.25;;;4.85;;
53261;SDS011;39658;51.090;-1.786;2022-11-20T07:30:58;22.85;;;3.97;;
53261;SDS011;39658;51.090;-1.786;2022-11-20T07:33:25;32.50;;;4.05;;
53261;SDS011;39658;51.090;-1.786;2022-11-20T07:35:53;27.58;;;4.13;;
53261;SDS011;39658;51.090;-1.786;2022-11-20T07:38:20;23.17;;;4.30;;
53261;SDS011;39658;51.090;-1.786;2022-11-20T07:40:47;26.38;;;4.28;;
53261;SDS011;39658;51.090;-1.786;2022-11-20T07:43:14;27.52;;;4.18;;
53261;SDS011;39658;51.090;-1.786;2022-11-20T07:45:40;23.92;;;5.07;;
53261;SDS011;39658;51.090;-1.786;2022-11-20T07:48:07;46.50;;;5.07;;
53261;SDS011;39658;51.090;-1.786;2022-11-20T07:50:34;40.92;;;5.72;;
53261;SDS011;39658;51.090;-1.786;2022-11-20T07:53:03;39.13;;;4.38;;
53261;SDS011;39658;51.090;-1.786;2022-11-20T07:55:30;34.10;;;3.60;;
53261;SDS011;39658;51.090;-1.786;2022-11-20T07:57:58;40.03;;;4.88;;
53261;SDS011;39658;51.090;-1.786;2022-11-20T08:00:25;26.17;;;4.03;;
53261;SDS011;39658;51.090;-1.786;2022-11-20T08:02:52;32.40;;;4.65;;
53261;SDS011;39658;51.090;-1.786;2022-11-20T08:05:19;27.85;;;3.63;;
53261;SDS011;39658;51.090;-1.786;2022-11-20T08:07:46;31.73;;;4.32;;
53261;SDS011;39658;51.090;-1.786;2022-11-20T08:10:15;31.85;;;5.13;;
53261;SDS011;39658;51.090;-1.786;2022-11-20T08:12:45;33.53;;;5.10;;
53261;SDS011;39658;51.090;-1.786;2022-11-20T08:15:30;40.58;;;4.32;;
53261;SDS011;39658;51.090;-1.786;2022-11-20T08:18:01;29.38;;;3.65;;
53261;SDS011;39658;51.090;-1.786;2022-11-20T08:20:29;32.95;;;5.22;;
53261;SDS011;39658;51.090;-1.786;2022-11-20T08:22:59;34.22;;;5.07;;
53261;SDS011;39658;51.090;-1.786;2022-11-20T08:25:28;33.67;;;4.50;;
53261;SDS011;39658;51.090;-1.786;2022-11-20T08:27:59;34.20;;;6.17;;
53261;SDS011;39658;51.090;-1.786;2022-11-20T08:30:26;28.87;;;4.93;;
53261;SDS011;39658;51.090;-1.786;2022-11-20T08:32:54;36.23;;;5.17;;
53261;SDS011;39658;51.090;-1.786;2022-11-20T08:35:21;23.25;;;4.07;;
53261;SDS011;39658;51.090;-1.786;2022-11-20T08:37:48;37.70;;;5.32;;
53261;SDS011;39658;51.090;-1.786;2022-11-20T08:40:15;39.13;;;5.30;;
53261;SDS011;39658;51.090;-1.786;2022-11-20T08:42:49;35.88;;;6.95;;
53261;SDS011;39658;51.090;-1.786;2022-11-20T08:45:17;37.40;;;5.00;;
53261;SDS011;39658;51.090;-1.786;2022-11-20T08:47:45;43.78;;;5.20;;
53261;SDS011;39658;51.090;-1.786;2022-11-20T08:50:12;32.22;;;4.88;;
53261;SDS011;39658;51.090;-1.786;2022-11-20T08:52:40;29.60;;;4.60;;
53261;SDS011;39658;51.090;-1.786;2022-11-20T08:55:08;33.83;;;4.47;;
53261;SDS011;39658;51.090;-1.786;2022-11-20T08:57:35;37.33;;;5.00;;
53261;SDS011;39658;51.090;-1.786;2022-11-20T09:00:05;29.67;;;5.63;;
53261;SDS011;39658;51.090;-1.786;2022-11-20T09:02:33;36.50;;;4.88;;
53261;SDS011;39658;51.090;-1.786;2022-11-20T09:05:00;35.25;;;4.70;;
53261;SDS011;39658;51.090;-1.786;2022-11-20T09:07:28;36.50;;;5.22;;
53261;SDS011;39658;51.090;-1.786;2022-11-20T09:09:55;42.95;;;5.30;;
53261;SDS011;39658;51.090;-1.786;2022-11-20T09:12:22;40.50;;;5.35;;
53261;SDS011;39658;51.090;-1.786;2022-11-20T09:14:49;36.05;;;6.18;;
53261;SDS011;39658;51.090;-1.786;2022-11-20T09:17:17;44.72;;;5.45;;
53261;SDS011;39658;51.090;-1.786;2022-11-20T09:19:45;35.05;;;5.75;;
53261;SDS011;39658;51.090;-1.786;2022-11-20T09:22:12;46.13;;;5.55;;
53261;SDS011;39658;51.090;-1.786;2022-11-20T09:24:39;37.50;;;5.45;;
53261;SDS011;39658;51.090;-1.786;2022-11-20T09:27:05;33.35;;;5.40;;
53261;SDS011;39658;51.090;-1.786;2022-11-20T09:29:32;37.42;;;5.45;;
53261;SDS011;39658;51.090;-1.786;2022-11-20T09:31:59;38.10;;;5.45;;
53261;SDS011;39658;51.090;-1.786;2022-11-20T09:34:27;33.17;;;5.90;;
53261;SDS011;39658;51.090;-1.786;2022-11-20T09:36:54;34.77;;;5.73;;
53261;SDS011;39658;51.090;-1.786;2022-11-20T09:39:20;43.53;;;5.78;;
53261;SDS011;39658;51.090;-1.786;2022-11-20T09:41:53;36.67;;;6.18;;
53261;SDS011;39658;51.090;-1.786;2022-11-20T09:44:33;33.35;;;5.57;;
53261;SDS011;39658;51.090;-1.786;2022-11-20T09:47:15;32.17;;;5.40;;
53261;SDS011;39658;51.090;-1.786;2022-11-20T09:49:58;31.67;;;6.28;;
53261;SDS011;39658;51.090;-1.786;2022-11-20T09:52:37;37.60;;;5.93;;
53261;SDS011;39658;51.090;-1.786;2022-11-20T09:55:12;37.95;;;7.18;;
53261;SDS011;39658;51.090;-1.786;2022-11-20T09:57:42;31.02;;;8.20;;
53261;SDS011;39658;51.090;-1.786;2022-11-20T10:00:12;30.88;;;6.68;;
53261;SDS011;39658;51.090;-1.786;2022-11-20T10:02:42;27.40;;;7.22;;
53261;SDS011;39658;51.090;-1.786;2022-11-20T10:05:15;34.25;;;7.78;;
53261;SDS011;39658;51.090;-1.786;2022-11-20T10:07:47;32.97;;;8.13;;
53261;SDS011;39658;51.090;-1.786;2022-11-20T10:10:21;28.48;;;7.15;;
53261;SDS011;39658;51.090;-1.786;2022-11-20T10:13:07;28.27;;;7.10;;
53261;SDS011;39658;51.090;-1.786;2022-11-20T10:15:50;26.40;;;7.13;;
53261;SDS011;39658;51.090;-1.786;2022-11-20T10:18:28;32.08;;;6.88;;
53261;SDS011;39658;51.090;-1.786;2022-11-20T10:21:09;30.38;;;7.25;;
53261;SDS011;39658;51.090;-1.786;2022-11-20T10:23:56;32.38;;;7.97;;
53261;SDS011;39658;51.090;-1.786;2022-11-20T10:26:35;24.65;;;6.78;;
53261;SDS011;39658;51.090;-1.786;2022-11-20T10:29:10;28.85;;;7.18;;
53261;SDS011;39658;51.090;-1.786;2022-11-20T10:31:40;30.45;;;6.55;;
53261;SDS011;39658;51.090;-1.786;2022-11-20T10:34:12;31.13;;;6.97;;
53261;SDS011;39658;51.090;-1.786;2022-11-20T10:36:49;23.73;;;6.40;;
53261;SDS011;39658;51.090;-1.786;2022-11-20T10:39:22;21.15;;;6.25;;
53261;SDS011;39658;51.090;-1.786;2022-11-20T10:41:55;33.17;;;8.18;;
53261;SDS011;39658;51.090;-1.786;2022-11-20T10:44:26;31.27;;;7.25;;
53261;SDS011;39658;51.090;-1.786;2022-11-20T10:47:12;24.92;;;6.57;;
53261;SDS011;39658;51.090;-1.786;2022-11-20T10:49:41;29.67;;;7.75;;
53261;SDS011;39658;51.090;-1.786;2022-11-20T10:52:13;26.67;;;6.78;;
53261;SDS011;39658;51.090;-1.786;2022-11-20T10:54:47;28.27;;;7.22;;
53261;SDS011;39658;51.090;-1.786;2022-11-20T10:57:26;26.67;;;6.72;;
53261;SDS011;39658;51.090;-1.786;2022-11-20T11:00:04;22.92;;;6.38;;
53261;SDS011;39658;51.090;-1.786;2022-11-20T11:02:33;26.00;;;6.20;;
53261;SDS011;39658;51.090;-1.786;2022-11-20T11:05:10;26.10;;;6.80;;
53261;SDS011;39658;51.090;-1.786;2022-11-20T11:07:44;25.00;;;6.20;;
53261;SDS011;39658;51.090;-1.786;2022-11-20T11:10:14;26.73;;;7.13;;
53261;SDS011;39658;51.090;-1.786;2022-11-20T11:12:44;24.63;;;6.13;;
53261;SDS011;39658;51.090;-1.786;2022-11-20T11:15:14;25.50;;;6.63;;
53261;SDS011;39658;51.090;-1.786;2022-11-20T11:17:51;24.80;;;6.60;;
53261;SDS011;39658;51.090;-1.786;2022-11-20T11:20:19;22.10;;;6.13;;
53261;SDS011;39658;51.090;-1.786;2022-11-20T11:22:49;23.70;;;6.63;;
53261;SDS011;39658;51.090;-1.786;2022-11-20T11:25:22;28.15;;;7.15;;
53261;SDS011;39658;51.090;-1.786;2022-11-20T11:27:55;27.73;;;6.38;;
53261;SDS011;39658;51.090;-1.786;2022-11-20T11:30:24;24.10;;;6.15;;
53261;SDS011;39658;51.090;-1.786;2022-11-20T11:33:02;32.63;;;7.85;;
53261;SDS011;39658;51.090;-1.786;2022-11-20T11:35:30;28.70;;;6.72;;
53261;SDS011;39658;51.090;-1.786;2022-11-20T11:38:03;22.65;;;5.70;;
53261;SDS011;39658;51.090;-1.786;2022-11-20T11:40:33;28.90;;;6.85;;
53261;SDS011;39658;51.090;-1.786;2022-11-20T11:43:02;26.48;;;6.38;;
53261;SDS011;39658;51.090;-1.786;2022-11-20T11:45:52;26.45;;;6.22;;
53261;SDS011;39658;51.090;-1.786;2022-11-20T11:48:19;27.10;;;6.68;;
53261;SDS011;39658;51.090;-1.786;2022-11-20T11:50:48;28.17;;;6.25;;
53261;SDS011;39658;51.090;-1.786;2022-11-20T11:53:17;27.65;;;6.57;;
53261;SDS011;39658;51.090;-1.786;2022-11-20T11:55:46;31.85;;;6.97;;
53261;SDS011;39658;51.090;-1.786;2022-11-20T11:58:19;27.48;;;6.85;;
53261;SDS011;39658;51.090;-1.786;2022-11-20T12:00:56;24.80;;;6.15;;
53261;SDS011;39658;51.090;-1.786;2022-11-20T12:03:27;29.02;;;6.32;;
53261;SDS011;39658;51.090;-1.786;2022-11-20T12:06:01;24.67;;;6.10;;
53261;SDS011;39658;51.090;-1.786;2022-11-20T12:08:36;28.10;;;6.18;;
53261;SDS011;39658;51.090;-1.786;2022-11-20T12:11:11;25.42;;;6.28;;
53261;SDS011;39658;51.090;-1.786;2022-11-20T12:13:44;24.25;;;5.70;;
53261;SDS011;39658;51.090;-1.786;2022-11-20T12:16:15;23.90;;;6.18;;
53261;SDS011;39658;51.090;-1.786;2022-11-20T12:18:45;25.55;;;5.50;;
53261;SDS011;39658;51.090;-1.786;2022-11-20T12:21:18;29.50;;;6.35;;
53261;SDS011;39658;51.090;-1.786;2022-11-20T12:23:52;26.95;;;6.40;;
53261;SDS011;39658;51.090;-1.786;2022-11-20T12:26:31;26.05;;;5.90;;
53261;SDS011;39658;51.090;-1.786;2022-11-20T12:29:12;28.50;;;6.60;;
53261;SDS011;39658;51.090;-1.786;2022-11-20T12:31:54;20.88;;;4.82;;
53261;SDS011;39658;51.090;-1.786;2022-11-20T12:37:27;22.90;;;5.53;;
53261;SDS011;39658;51.090;-1.786;2022-11-20T12:40:04;25.60;;;5.88;;
53261;SDS011;39658;51.090;-1.786;2022-11-20T12:42:48;27.63;;;6.00;;
53261;SDS011;39658;51.090;-1.786;2022-11-20T12:51:57;23.50;;;5.03;;
53261;SDS011;39658;51.090;-1.786;2022-11-20T12:54:53;29.67;;;6.13;;
53261;SDS011;39658;51.090;-1.786;2022-11-20T12:57:35;31.52;;;5.88;;
53261;SDS011;39658;51.090;-1.786;2022-11-20T13:00:14;30.23;;;5.95;;
53261;SDS011;39658;51.090;-1.786;2022-11-20T13:02:58;23.15;;;4.63;;
53261;SDS011;39658;51.090;-1.786;2022-11-20T13:05:46;22.50;;;5.15;;
53261;SDS011;39658;51.090;-1.786;2022-11-20T13:08:22;24.08;;;5.07;;
53261;SDS011;39658;51.090;-1.786;2022-11-20T13:10:54;29.25;;;5.10;;
53261;SDS011;39658;51.090;-1.786;2022-11-20T13:13:30;38.45;;;5.53;;
53261;SDS011;39658;51.090;-1.786;2022-11-20T13:16:03;30.85;;;6.22;;
53261;SDS011;39658;51.090;-1.786;2022-11-20T13:18:35;23.58;;;5.80;;
53261;SDS011;39658;51.090;-1.786;2022-11-20T13:21:13;22.58;;;5.28;;
53261;SDS011;39658;51.090;-1.786;2022-11-20T13:23:41;26.42;;;5.95;;
53261;SDS011;39658;51.090;-1.786;2022-11-20T13:26:15;17.30;;;3.85;;
53261;SDS011;39658;51.090;-1.786;2022-11-20T13:28:45;22.55;;;4.80;;
53261;SDS011;39658;51.090;-1.786;2022-11-20T13:31:23;20.85;;;4.45;;
53261;SDS011;39658;51.090;-1.786;2022-11-20T13:33:56;18.25;;;4.00;;
53261;SDS011;39658;51.090;-1.786;2022-11-20T13:36:26;24.30;;;5.13;;
53261;SDS011;39658;51.090;-1.786;2022-11-20T13:38:54;16.75;;;3.53;;
53261;SDS011;39658;51.090;-1.786;2022-11-20T13:41:27;21.38;;;4.10;;
53261;SDS011;39658;51.090;-1.786;2022-11-20T13:44:04;23.10;;;4.70;;
53261;SDS011;39658;51.090;-1.786;2022-11-20T13:46:37;23.65;;;3.83;;
53261;SDS011;39658;51.090;-1.786;2022-11-20T13:49:09;13.95;;;3.08;;
53261;SDS011;39658;51.090;-1.786;2022-11-20T13:51:43;22.25;;;3.92;;
53261;SDS011;39658;51.090;-1.786;2022-11-20T13:54:22;19.88;;;4.43;;
53261;SDS011;39658;51.090;-1.786;2022-11-20T13:57:13;17.83;;;3.28;;
53261;SDS011;39658;51.090;-1.786;2022-11-20T13:59:57;15.68;;;4.07;;
53261;SDS011;39658;51.090;-1.786;2022-11-20T14:02:28;14.40;;;3.10;;
53261;SDS011;39658;51.090;-1.786;2022-11-20T14:04:58;15.52;;;3.47;;
53261;SDS011;39658;51.090;-1.786;2022-11-20T14:07:27;15.10;;;3.00;;
53261;SDS011;39658;51.090;-1.786;2022-11-20T14:10:01;15.68;;;2.67;;
53261;SDS011;39658;51.090;-1.786;2022-11-20T14:12:30;11.48;;;2.42;;
53261;SDS011;39658;51.090;-1.786;2022-11-20T14:14:58;10.13;;;2.10;;
53261;SDS011;39658;51.090;-1.786;2022-11-20T14:17:29;9.25;;;1.60;;
53261;SDS011;39658;51.090;-1.786;2022-11-20T14:19:58;8.15;;;1.70;;
53261;SDS011;39658;51.090;-1.786;2022-11-20T14:22:28;12.88;;;2.35;;
53261;SDS011;39658;51.090;-1.786;2022-11-20T14:25:03;4.68;;;1.13;;
53261;SDS011;39658;51.090;-1.786;2022-11-20T14:27:35;6.47;;;1.13;;
53261;SDS011;39658;51.090;-1.786;2022-11-20T14:30:04;6.90;;;1.50;;
53261;SDS011;39658;51.090;-1.786;2022-11-20T14:32:31;8.77;;;1.42;;
53261;SDS011;39658;51.090;-1.786;2022-11-20T14:35:02;9.02;;;2.15;;
53261;SDS011;39658;51.090;-1.786;2022-11-20T14:40:05;10.73;;;1.52;;
53261;SDS011;39658;51.090;-1.786;2022-11-20T14:42:49;10.45;;;2.15;;
53261;SDS011;39658;51.090;-1.786;2022-11-20T14:45:16;8.23;;;1.92;;
53261;SDS011;39658;51.090;-1.786;2022-11-20T14:47:44;9.35;;;1.60;;
53261;SDS011;39658;51.090;-1.786;2022-11-20T14:50:12;9.52;;;2.10;;
53261;SDS011;39658;51.090;-1.786;2022-11-20T14:52:49;7.65;;;1.85;;
53261;SDS011;39658;51.090;-1.786;2022-11-20T14:55:24;9.10;;;1.92;;